createdAt,value
2022-10-10T00:01:40.069Z,0
2022-10-10T00:07:02.569Z,0
2022-10-10T00:12:24.927Z,0
2022-10-10T00:23:10.236Z,1
2022-10-10T00:28:33.279Z,0
2022-10-10T00:33:56.707Z,1
2022-10-10T00:39:19.358Z,0
2022-10-10T00:44:41.915Z,0
2022-10-10T00:50:04.586Z,0
2022-10-10T00:55:27.109Z,0
2022-10-10T01:00:49.848Z,0
2022-10-10T01:06:12.685Z,0
2022-10-10T01:11:35.376Z,0
2022-10-10T01:16:57.785Z,0
2022-10-10T01:22:20.227Z,0
2022-10-10T01:27:42.712Z,0
2022-10-10T01:33:04.970Z,0
2022-10-10T01:38:28.193Z,0
2022-10-10T01:43:50.611Z,0
2022-10-10T01:49:13.261Z,0
2022-10-10T01:59:38.016Z,0
2022-10-10T02:05:00.356Z,0
2022-10-10T02:10:22.768Z,0
2022-10-10T02:15:45.175Z,0
2022-10-10T02:21:15.431Z,0
2022-10-10T02:26:37.989Z,0
2022-10-10T02:32:00.528Z,0
2022-10-10T02:37:22.954Z,0
2022-10-10T02:42:45.656Z,0
2022-10-10T02:48:08.168Z,0
2022-10-10T02:53:30.627Z,0
2022-10-10T02:58:53.043Z,0
2022-10-10T03:04:15.805Z,0
2022-10-10T03:09:38.327Z,0
2022-10-10T03:15:00.725Z,0
2022-10-10T03:20:23.562Z,0
2022-10-10T03:25:46.107Z,1
2022-10-10T03:47:16.421Z,2
2022-10-10T03:52:39.528Z,0
2022-10-10T03:58:01.988Z,0
2022-10-10T04:03:24.651Z,3
2022-10-10T04:08:47.679Z,0
2022-10-10T04:14:09.909Z,0
2022-10-10T04:19:32.390Z,0
2022-10-10T04:24:54.835Z,0
2022-10-10T04:30:17.512Z,0
2022-10-10T04:35:39.913Z,0
2022-10-10T04:41:02.541Z,0
2022-10-10T04:46:25.349Z,0
2022-10-10T04:51:47.761Z,0
2022-10-10T04:57:10.223Z,0
2022-10-10T05:02:32.699Z,0
2022-10-10T05:07:56.073Z,0
2022-10-10T05:13:18.502Z,0
2022-10-10T05:29:27.258Z,0
2022-10-10T05:34:49.636Z,1
2022-10-10T05:40:12.194Z,30.3
2022-10-10T05:45:34.777Z,35.9
2022-10-10T05:50:57.364Z,47
2022-10-10T05:56:20.088Z,51.7
2022-10-10T06:01:42.889Z,79.8
2022-10-10T06:07:05.411Z,105
2022-10-10T06:12:37.351Z,137.1
2022-10-10T06:18:00.041Z,167.5
2022-10-10T06:23:22.856Z,186.6
2022-10-10T06:28:45.977Z,203.3
2022-10-10T06:34:08.970Z,213.2
2022-10-10T06:39:31.961Z,224.5
2022-10-10T06:44:54.868Z,204.8
2022-10-10T06:50:17.871Z,193.7
2022-10-10T06:55:40.655Z,222.2
2022-10-10T07:01:03.488Z,220.7
2022-10-10T07:16:52.006Z,187.8
2022-10-10T07:22:14.620Z,233.8
2022-10-10T07:27:37.486Z,211.5
2022-10-10T07:33:00.465Z,267.4
2022-10-10T07:38:23.524Z,380.5
2022-10-10T07:43:47.004Z,314.5
2022-10-10T07:49:09.915Z,698.5
2022-10-10T07:54:32.905Z,2449.3
2022-10-10T07:59:55.742Z,572.3
2022-10-10T08:05:19.270Z,2748.3
2022-10-10T08:10:42.186Z,1202.4
2022-10-10T08:16:04.830Z,1514.6
2022-10-10T08:21:28.507Z,3005.8
2022-10-10T08:26:51.902Z,2630.6
2022-10-10T08:32:15.563Z,2228.5
2022-10-10T08:42:53.655Z,1137.4
2022-10-10T08:48:17.139Z,982.7
2022-10-10T08:53:40.556Z,2014.4
2022-10-10T08:59:22.339Z,2582.2
2022-10-10T09:10:08.048Z,2647.8
2022-10-10T09:15:30.997Z,2923.5
2022-10-10T09:20:54.623Z,2091.5
2022-10-10T09:26:54.216Z,2832.3
2022-10-10T09:32:17.706Z,2222.5
2022-10-10T09:37:48.685Z,2232.8
2022-10-10T09:43:22.894Z,2733.3
2022-10-10T09:48:46.260Z,2972.7
2022-10-10T09:54:12.821Z,3073.8
2022-10-10T09:59:39.134Z,2939.9
2022-10-10T10:05:01.615Z,3232
2022-10-10T10:10:29.225Z,1925.3
2022-10-10T10:15:52.263Z,3038.8
2022-10-10T10:21:16.010Z,2664.9
2022-10-10T10:26:38.749Z,2718.1
2022-10-10T10:32:00.458Z,2316.2
2022-10-10T10:37:22.940Z,2553.5
2022-10-10T10:43:02.310Z,1870.9
2022-10-10T10:48:24.238Z,1465.7
2022-10-10T11:01:22.979Z,1332.8
2022-10-10T11:07:23.203Z,1487.4
2022-10-10T11:12:46.325Z,1350.3
2022-10-10T11:18:11.377Z,1513.7
2022-10-10T11:23:36.661Z,1639.9
2022-10-10T11:28:59.147Z,1349.2
2022-10-10T11:34:21.843Z,1281.9
2022-10-10T11:39:44.555Z,1121.7
2022-10-10T11:50:32.197Z,1269.4
2022-10-10T11:55:55.199Z,2212.1
2022-10-10T12:01:20.870Z,1174.3
2022-10-10T12:06:43.367Z,1105.9
2022-10-10T12:12:08.628Z,1266.3
2022-10-10T12:17:31.316Z,1277.5
2022-10-10T12:23:31.207Z,1237.2
2022-10-10T12:28:54.758Z,2369.3
2022-10-10T12:34:20.422Z,1533.3
2022-10-10T12:39:43.477Z,1659
2022-10-10T12:45:05.671Z,1079.1
2022-10-10T12:50:27.443Z,1096.5
2022-10-10T12:55:50.325Z,1366.3
2022-10-10T13:01:13.425Z,1138.3
2022-10-10T13:06:35.881Z,1127.9
2022-10-10T13:11:58.523Z,1902.3
2022-10-10T13:17:22.874Z,1593
2022-10-10T13:22:47.913Z,2647.6
2022-10-10T13:28:09.229Z,990.9
2022-10-10T13:38:41.656Z,593.2
2022-10-10T13:44:03.589Z,416.3
2022-10-10T14:00:13.630Z,286.1
2022-10-10T14:05:35.971Z,216.4
2022-10-10T14:11:01.757Z,154.4
2022-10-10T14:16:24.635Z,117.3
2022-10-10T14:21:54.898Z,106.5
2022-10-10T14:27:17.343Z,174.8
2022-10-10T14:32:40.014Z,171.7
2022-10-10T14:38:02.601Z,206.1
2022-10-10T14:43:25.117Z,160.9
2022-10-10T14:54:17.398Z,261.9
2022-10-10T14:59:50.467Z,388
2022-10-10T15:05:13.148Z,332.6
2022-10-10T15:10:36.208Z,272.8
2022-10-10T15:21:24.211Z,126.7
2022-10-10T15:26:54.020Z,164.8
2022-10-10T15:32:16.725Z,141
2022-10-10T15:37:39.027Z,126.2
2022-10-10T15:48:23.760Z,203.5
2022-10-10T15:53:46.584Z,197.6
2022-10-10T15:59:09.325Z,180.5
2022-10-10T16:04:31.634Z,131.4
2022-10-10T16:09:54.232Z,95.8
2022-10-10T16:15:19.243Z,85.3
2022-10-10T16:20:41.568Z,79.7
2022-10-10T16:26:05.180Z,39
2022-10-10T16:31:28.638Z,36.7
2022-10-10T16:36:54.160Z,35.6
2022-10-10T16:42:21.975Z,35.2
2022-10-10T16:47:44.633Z,28.5
2022-10-10T16:53:07.099Z,17
2022-10-10T16:58:29.859Z,15
2022-10-10T17:03:52.221Z,6
2022-10-10T17:09:25.103Z,1
2022-10-10T17:14:47.783Z,0
2022-10-10T17:20:10.219Z,0
2022-10-10T17:36:19.622Z,0
2022-10-10T17:47:08.090Z,0
2022-10-10T17:52:30.562Z,0
2022-10-10T17:57:52.985Z,0
2022-10-10T18:08:55.557Z,0
2022-10-10T18:14:18.194Z,0
2022-10-10T18:19:41.020Z,0
2022-10-10T18:26:20.788Z,0
2022-10-10T18:31:44.090Z,0
2022-10-10T18:37:06.184Z,0
2022-10-10T18:52:37.644Z,0
2022-10-10T18:57:59.952Z,0
2022-10-10T19:03:22.495Z,0
2022-10-10T19:14:31.632Z,0
2022-10-10T19:25:27.578Z,0
2022-10-10T19:30:50.040Z,0
2022-10-10T19:36:12.514Z,0
2022-10-10T19:41:35.584Z,0
2022-10-10T19:47:04.628Z,0
2022-10-10T19:52:27.336Z,0
2022-10-10T19:57:59.186Z,0
2022-10-10T20:03:22.172Z,0
2022-10-10T20:08:44.626Z,0
2022-10-10T20:14:33.434Z,0
2022-10-10T20:19:56.097Z,0
2022-10-10T20:30:46.730Z,0
2022-10-10T20:36:10.337Z,0
2022-10-10T20:41:34.997Z,0
2022-10-10T20:57:50.382Z,0
2022-10-10T21:03:12.985Z,0
2022-10-10T21:08:41.426Z,0
2022-10-10T21:14:03.762Z,0
2022-10-10T21:19:26.349Z,0
2022-10-10T21:24:52.527Z,0
2022-10-10T21:30:15.144Z,0
2022-10-10T21:35:37.776Z,0
2022-10-10T21:41:01.321Z,0
2022-10-10T21:46:23.947Z,0
2022-10-10T21:57:12.782Z,0
2022-10-10T22:02:42.390Z,0
2022-10-10T22:08:05.481Z,0
2022-10-10T22:13:40.719Z,0
2022-10-10T22:19:03.278Z,0
2022-10-10T22:24:25.764Z,0
2022-10-10T22:29:48.279Z,0
2022-10-10T22:35:40.950Z,0
2022-10-10T22:51:48.915Z,0
2022-10-10T22:57:13.534Z,0
2022-10-10T23:02:36.462Z,0
2022-10-10T23:07:59.246Z,0
2022-10-10T23:13:22.922Z,0
2022-10-10T23:18:52.898Z,0
2022-10-10T23:24:15.292Z,0
2022-10-10T23:29:37.729Z,0
2022-10-10T23:35:00.037Z,0
2022-10-10T23:40:23.010Z,0
2022-10-10T23:45:45.209Z,0
2022-10-10T23:51:07.780Z,1
2022-10-10T23:56:51.786Z,0
